sensor_id;sensor_type;location;lat;lon;timestamp;pressure;altitude;pressure_sealevel;temperature
24639;BMP180;1641;51.306;12.384;2022-11-30T00:00:27;100620.00;;;9.70
24639;BMP180;1641;51.306;12.384;2022-11-30T00:02:52;100614.00;;;9.60
24639;BMP180;1641;51.306;12.384;2022-11-30T00:05:19;100620.00;;;9.60
24639;BMP180;1641;51.306;12.384;2022-11-30T00:07:45;100613.00;;;9.60
24639;BMP180;1641;51.306;12.384;2022-11-30T00:10:10;100615.00;;;9.50
24639;BMP180;1641;51.306;12.384;2022-11-30T00:12:36;100619.00;;;9.30
24639;BMP180;1641;51.306;12.384;2022-11-30T00:15:01;100599.00;;;9.20
24639;BMP180;1641;51.306;12.384;2022-11-30T00:17:26;100620.00;;;9.00
24639;BMP180;1641;51.306;12.384;2022-11-30T00:19:52;100619.00;;;8.70
24639;BMP180;1641;51.306;12.384;2022-11-30T00:22:23;100627.00;;;8.70
24639;BMP180;1641;51.306;12.384;2022-11-30T00:24:48;100621.00;;;8.70
24639;BMP180;1641;51.306;12.384;2022-11-30T00:27:13;100582.00;;;8.80
24639;BMP180;1641;51.306;12.384;2022-11-30T00:29:38;100620.00;;;8.70
24639;BMP180;1641;51.306;12.384;2022-11-30T00:32:04;100626.00;;;9.00
24639;BMP180;1641;51.306;12.384;2022-11-30T00:34:29;100599.00;;;9.10
24639;BMP180;1641;51.306;12.384;2022-11-30T00:36:54;100623.00;;;9.00
24639;BMP180;1641;51.306;12.384;2022-11-30T00:39:20;100625.00;;;8.90
24639;BMP180;1641;51.306;12.384;2022-11-30T00:41:45;100626.00;;;8.90
24639;BMP180;1641;51.306;12.384;2022-11-30T00:44:10;100628.00;;;8.80
24639;BMP180;1641;51.306;12.384;2022-11-30T00:46:36;100631.00;;;8.90
24639;BMP180;1641;51.306;12.384;2022-11-30T00:49:01;100633.00;;;8.80
24639;BMP180;1641;51.306;12.384;2022-11-30T00:51:26;100640.00;;;9.00
24639;BMP180;1641;51.306;12.384;2022-11-30T00:53:51;100635.00;;;8.80
24639;BMP180;1641;51.306;12.384;2022-11-30T00:56:20;100638.00;;;8.90
24639;BMP180;1641;51.306;12.384;2022-11-30T00:58:45;100639.00;;;8.90
24639;BMP180;1641;51.306;12.384;2022-11-30T01:01:10;100637.00;;;8.90
24639;BMP180;1641;51.306;12.384;2022-11-30T01:03:36;100636.00;;;9.00
24639;BMP180;1641;51.306;12.384;2022-11-30T01:06:06;100634.00;;;9.30
24639;BMP180;1641;51.306;12.384;2022-11-30T01:08:35;100607.00;;;9.30
24639;BMP180;1641;51.306;12.384;2022-11-30T01:11:20;100629.00;;;9.40
24639;BMP180;1641;51.306;12.384;2022-11-30T01:13:45;100637.00;;;9.40
24639;BMP180;1641;51.306;12.384;2022-11-30T01:16:13;100635.00;;;9.40
24639;BMP180;1641;51.306;12.384;2022-11-30T01:18:40;100644.00;;;9.30
24639;BMP180;1641;51.306;12.384;2022-11-30T01:21:14;100644.00;;;9.20
24639;BMP180;1641;51.306;12.384;2022-11-30T01:23:40;100644.00;;;9.20
24639;BMP180;1641;51.306;12.384;2022-11-30T01:26:06;100640.00;;;9.10
24639;BMP180;1641;51.306;12.384;2022-11-30T01:28:32;100651.00;;;8.80
24639;BMP180;1641;51.306;12.384;2022-11-30T01:31:03;100639.00;;;8.90
24639;BMP180;1641;51.306;12.384;2022-11-30T01:33:39;100648.00;;;9.10
24639;BMP180;1641;51.306;12.384;2022-11-30T01:36:16;100633.00;;;9.10
24639;BMP180;1641;51.306;12.384;2022-11-30T01:38:46;100644.00;;;9.20
24639;BMP180;1641;51.306;12.384;2022-11-30T01:41:14;100648.00;;;8.90
24639;BMP180;1641;51.306;12.384;2022-11-30T01:43:42;100643.00;;;9.00
24639;BMP180;1641;51.306;12.384;2022-11-30T01:46:31;100648.00;;;9.20
24639;BMP180;1641;51.306;12.384;2022-11-30T01:51:44;100647.00;;;9.10
24639;BMP180;1641;51.306;12.384;2022-11-30T01:54:14;100638.00;;;9.20
24639;BMP180;1641;51.306;12.384;2022-11-30T01:56:44;100606.00;;;9.30
24639;BMP180;1641;51.306;12.384;2022-11-30T01:59:10;100637.00;;;9.40
24639;BMP180;1641;51.306;12.384;2022-11-30T02:01:36;100641.00;;;9.40
24639;BMP180;1641;51.306;12.384;2022-11-30T02:04:07;100637.00;;;9.30
24639;BMP180;1641;51.306;12.384;2022-11-30T02:06:33;100635.00;;;9.30
24639;BMP180;1641;51.306;12.384;2022-11-30T02:08:59;100634.00;;;9.10
24639;BMP180;1641;51.306;12.384;2022-11-30T02:11:25;100653.00;;;9.00
24639;BMP180;1641;51.306;12.384;2022-11-30T02:14:05;100640.00;;;8.90
24639;BMP180;1641;51.306;12.384;2022-11-30T02:17:00;100636.00;;;9.00
24639;BMP180;1641;51.306;12.384;2022-11-30T02:27:17;100635.00;;;8.80
24639;BMP180;1641;51.306;12.384;2022-11-30T02:29:48;100632.00;;;8.70
24639;BMP180;1641;51.306;12.384;2022-11-30T02:32:27;100631.00;;;8.80
24639;BMP180;1641;51.306;12.384;2022-11-30T02:34:54;100629.00;;;9.00
24639;BMP180;1641;51.306;12.384;2022-11-30T02:37:22;100644.00;;;8.90
24639;BMP180;1641;51.306;12.384;2022-11-30T02:39:48;100638.00;;;9.10
24639;BMP180;1641;51.306;12.384;2022-11-30T02:42:14;100638.00;;;9.00
24639;BMP180;1641;51.306;12.384;2022-11-30T02:44:40;100631.00;;;9.00
24639;BMP180;1641;51.306;12.384;2022-11-30T02:47:40;100643.00;;;8.90
24639;BMP180;1641;51.306;12.384;2022-11-30T02:50:10;100640.00;;;8.70
24639;BMP180;1641;51.306;12.384;2022-11-30T02:52:38;100626.00;;;8.90
24639;BMP180;1641;51.306;12.384;2022-11-30T02:55:08;100639.00;;;9.00
24639;BMP180;1641;51.306;12.384;2022-11-30T02:57:34;100645.00;;;9.00
24639;BMP180;1641;51.306;12.384;2022-11-30T03:00:02;100642.00;;;8.60
24639;BMP180;1641;51.306;12.384;2022-11-30T03:02:27;100653.00;;;8.70
24639;BMP180;1641;51.306;12.384;2022-11-30T03:04:53;100653.00;;;8.70
24639;BMP180;1641;51.306;12.384;2022-11-30T03:07:18;100655.00;;;9.00
24639;BMP180;1641;51.306;12.384;2022-11-30T03:09:43;100665.00;;;8.90
24639;BMP180;1641;51.306;12.384;2022-11-30T03:12:09;100659.00;;;9.00
24639;BMP180;1641;51.306;12.384;2022-11-30T03:14:34;100640.00;;;9.00
24639;BMP180;1641;51.306;12.384;2022-11-30T03:16:59;100618.00;;;8.90
24639;BMP180;1641;51.306;12.384;2022-11-30T03:19:25;100640.00;;;8.70
24639;BMP180;1641;51.306;12.384;2022-11-30T03:21:50;100662.00;;;8.40
24639;BMP180;1641;51.306;12.384;2022-11-30T03:24:16;100620.00;;;8.60
24639;BMP180;1641;51.306;12.384;2022-11-30T03:26:41;100645.00;;;8.50
24639;BMP180;1641;51.306;12.384;2022-11-30T03:29:06;100639.00;;;8.30
24639;BMP180;1641;51.306;12.384;2022-11-30T03:31:32;100651.00;;;8.30
24639;BMP180;1641;51.306;12.384;2022-11-30T03:33:57;100659.00;;;8.50
24639;BMP180;1641;51.306;12.384;2022-11-30T03:36:22;100673.00;;;8.70
24639;BMP180;1641;51.306;12.384;2022-11-30T03:38:47;100667.00;;;8.60
24639;BMP180;1641;51.306;12.384;2022-11-30T03:41:15;100669.00;;;8.60
24639;BMP180;1641;51.306;12.384;2022-11-30T03:43:41;100669.00;;;8.60
24639;BMP180;1641;51.306;12.384;2022-11-30T03:46:07;100677.00;;;8.60
24639;BMP180;1641;51.306;12.384;2022-11-30T03:48:33;100664.00;;;8.50
24639;BMP180;1641;51.306;12.384;2022-11-30T03:51:00;100677.00;;;8.40
24639;BMP180;1641;51.306;12.384;2022-11-30T03:53:26;100684.00;;;8.30
24639;BMP180;1641;51.306;12.384;2022-11-30T03:55:53;100689.00;;;8.10
24639;BMP180;1641;51.306;12.384;2022-11-30T03:58:19;100689.00;;;8.30
24639;BMP180;1641;51.306;12.384;2022-11-30T04:00:44;100692.00;;;8.20
24639;BMP180;1641;51.306;12.384;2022-11-30T04:03:09;100693.00;;;8.30
24639;BMP180;1641;51.306;12.384;2022-11-30T04:05:35;100693.00;;;8.20
24639;BMP180;1641;51.306;12.384;2022-11-30T04:08:00;100689.00;;;8.10
24639;BMP180;1641;51.306;12.384;2022-11-30T04:10:26;100683.00;;;8.30
24639;BMP180;1641;51.306;12.384;2022-11-30T04:12:51;100658.00;;;8.40
24639;BMP180;1641;51.306;12.384;2022-11-30T04:15:16;100696.00;;;8.30
24639;BMP180;1641;51.306;12.384;2022-11-30T04:17:42;100692.00;;;8.50
24639;BMP180;1641;51.306;12.384;2022-11-30T04:20:07;100687.00;;;8.30
24639;BMP180;1641;51.306;12.384;2022-11-30T04:22:33;100616.00;;;8.40
24639;BMP180;1641;51.306;12.384;2022-11-30T04:24:58;100691.00;;;8.40
24639;BMP180;1641;51.306;12.384;2022-11-30T04:27:23;100687.00;;;8.40
24639;BMP180;1641;51.306;12.384;2022-11-30T04:29:49;100688.00;;;8.40
24639;BMP180;1641;51.306;12.384;2022-11-30T04:32:14;100658.00;;;8.60
24639;BMP180;1641;51.306;12.384;2022-11-30T04:34:40;100684.00;;;8.60
24639;BMP180;1641;51.306;12.384;2022-11-30T04:37:05;100662.00;;;8.90
24639;BMP180;1641;51.306;12.384;2022-11-30T04:39:32;100685.00;;;8.80
24639;BMP180;1641;51.306;12.384;2022-11-30T04:41:58;100688.00;;;8.90
24639;BMP180;1641;51.306;12.384;2022-11-30T04:44:23;100687.00;;;8.60
24639;BMP180;1641;51.306;12.384;2022-11-30T04:46:48;100671.00;;;8.60
24639;BMP180;1641;51.306;12.384;2022-11-30T04:49:14;100689.00;;;8.60
24639;BMP180;1641;51.306;12.384;2022-11-30T04:51:39;100692.00;;;8.80
24639;BMP180;1641;51.306;12.384;2022-11-30T04:54:04;100698.00;;;8.80
24639;BMP180;1641;51.306;12.384;2022-11-30T04:56:29;100685.00;;;8.80
24639;BMP180;1641;51.306;12.384;2022-11-30T04:58:55;100689.00;;;8.70
24639;BMP180;1641;51.306;12.384;2022-11-30T05:01:20;100687.00;;;8.70
24639;BMP180;1641;51.306;12.384;2022-11-30T05:03:45;100701.00;;;8.60
24639;BMP180;1641;51.306;12.384;2022-11-30T05:06:10;100697.00;;;8.60
24639;BMP180;1641;51.306;12.384;2022-11-30T05:08:36;100694.00;;;8.40
24639;BMP180;1641;51.306;12.384;2022-11-30T05:11:01;100699.00;;;8.50
24639;BMP180;1641;51.306;12.384;2022-11-30T05:13:27;100686.00;;;8.70
24639;BMP180;1641;51.306;12.384;2022-11-30T05:15:52;100702.00;;;8.50
24639;BMP180;1641;51.306;12.384;2022-11-30T05:18:18;100700.00;;;8.50
24639;BMP180;1641;51.306;12.384;2022-11-30T05:20:48;100695.00;;;8.50
24639;BMP180;1641;51.306;12.384;2022-11-30T05:23:14;100704.00;;;8.50
24639;BMP180;1641;51.306;12.384;2022-11-30T05:25:41;100700.00;;;8.50
24639;BMP180;1641;51.306;12.384;2022-11-30T05:28:06;100704.00;;;8.50
24639;BMP180;1641;51.306;12.384;2022-11-30T05:30:31;100701.00;;;8.70
24639;BMP180;1641;51.306;12.384;2022-11-30T05:32:56;100697.00;;;8.80
24639;BMP180;1641;51.306;12.384;2022-11-30T05:35:25;100701.00;;;8.80
24639;BMP180;1641;51.306;12.384;2022-11-30T05:37:50;100667.00;;;8.80
24639;BMP180;1641;51.306;12.384;2022-11-30T05:40:15;100694.00;;;8.60
24639;BMP180;1641;51.306;12.384;2022-11-30T05:42:44;100715.00;;;8.70
24639;BMP180;1641;51.306;12.384;2022-11-30T05:45:10;100706.00;;;8.30
24639;BMP180;1641;51.306;12.384;2022-11-30T05:47:35;100707.00;;;8.70
24639;BMP180;1641;51.306;12.384;2022-11-30T05:50:04;100690.00;;;8.60
24639;BMP180;1641;51.306;12.384;2022-11-30T05:52:30;100722.00;;;8.70
24639;BMP180;1641;51.306;12.384;2022-11-30T05:54:55;100711.00;;;8.80
24639;BMP180;1641;51.306;12.384;2022-11-30T05:57:23;100714.00;;;8.90
24639;BMP180;1641;51.306;12.384;2022-11-30T05:59:49;100723.00;;;8.90
24639;BMP180;1641;51.306;12.384;2022-11-30T06:02:14;100704.00;;;8.80
24639;BMP180;1641;51.306;12.384;2022-11-30T06:04:39;100722.00;;;8.70
24639;BMP180;1641;51.306;12.384;2022-11-30T06:07:04;100716.00;;;8.80
24639;BMP180;1641;51.306;12.384;2022-11-30T06:09:30;100723.00;;;9.00
24639;BMP180;1641;51.306;12.384;2022-11-30T06:11:55;100737.00;;;9.10
24639;BMP180;1641;51.306;12.384;2022-11-30T06:14:20;100729.00;;;9.10
24639;BMP180;1641;51.306;12.384;2022-11-30T06:16:46;100728.00;;;8.70
24639;BMP180;1641;51.306;12.384;2022-11-30T06:19:11;100736.00;;;8.50
24639;BMP180;1641;51.306;12.384;2022-11-30T06:21:36;100730.00;;;8.60
24639;BMP180;1641;51.306;12.384;2022-11-30T06:24:02;100733.00;;;8.20
24639;BMP180;1641;51.306;12.384;2022-11-30T06:26:27;100737.00;;;8.10
24639;BMP180;1641;51.306;12.384;2022-11-30T06:28:55;100738.00;;;8.30
24639;BMP180;1641;51.306;12.384;2022-11-30T06:31:21;100734.00;;;8.00
24639;BMP180;1641;51.306;12.384;2022-11-30T06:33:46;100738.00;;;7.90
24639;BMP180;1641;51.306;12.384;2022-11-30T06:36:11;100745.00;;;8.00
24639;BMP180;1641;51.306;12.384;2022-11-30T06:38:36;100744.00;;;8.40
24639;BMP180;1641;51.306;12.384;2022-11-30T06:41:07;100747.00;;;8.20
24639;BMP180;1641;51.306;12.384;2022-11-30T06:43:36;100758.00;;;7.60
24639;BMP180;1641;51.306;12.384;2022-11-30T06:46:02;100751.00;;;7.30
24639;BMP180;1641;51.306;12.384;2022-11-30T06:48:28;100732.00;;;7.00
24639;BMP180;1641;51.306;12.384;2022-11-30T06:50:54;100766.00;;;7.10
24639;BMP180;1641;51.306;12.384;2022-11-30T06:53:19;100737.00;;;7.30
24639;BMP180;1641;51.306;12.384;2022-11-30T06:55:44;100769.00;;;7.60
24639;BMP180;1641;51.306;12.384;2022-11-30T06:58:11;100768.00;;;7.90
24639;BMP180;1641;51.306;12.384;2022-11-30T07:00:37;100772.00;;;7.80
24639;BMP180;1641;51.306;12.384;2022-11-30T07:03:03;100769.00;;;7.90
24639;BMP180;1641;51.306;12.384;2022-11-30T07:05:31;100776.00;;;7.50
24639;BMP180;1641;51.306;12.384;2022-11-30T07:07:56;100772.00;;;7.40
24639;BMP180;1641;51.306;12.384;2022-11-30T07:10:21;100784.00;;;7.40
24639;BMP180;1641;51.306;12.384;2022-11-30T07:12:50;100785.00;;;7.10
24639;BMP180;1641;51.306;12.384;2022-11-30T07:15:18;100780.00;;;7.30
24639;BMP180;1641;51.306;12.384;2022-11-30T07:17:43;100744.00;;;6.90
24639;BMP180;1641;51.306;12.384;2022-11-30T07:20:09;100776.00;;;6.90
24639;BMP180;1641;51.306;12.384;2022-11-30T07:22:37;100776.00;;;7.00
24639;BMP180;1641;51.306;12.384;2022-11-30T07:25:02;100787.00;;;7.30
24639;BMP180;1641;51.306;12.384;2022-11-30T07:27:46;100753.00;;;7.00
24639;BMP180;1641;51.306;12.384;2022-11-30T07:30:15;100762.00;;;7.10
24639;BMP180;1641;51.306;12.384;2022-11-30T07:32:40;100773.00;;;7.50
24639;BMP180;1641;51.306;12.384;2022-11-30T07:35:05;100778.00;;;7.50
24639;BMP180;1641;51.306;12.384;2022-11-30T07:37:31;100789.00;;;7.20
24639;BMP180;1641;51.306;12.384;2022-11-30T07:39:59;100778.00;;;7.60
24639;BMP180;1641;51.306;12.384;2022-11-30T07:42:24;100786.00;;;7.80
24639;BMP180;1641;51.306;12.384;2022-11-30T07:44:50;100766.00;;;7.70
24639;BMP180;1641;51.306;12.384;2022-11-30T07:47:19;100782.00;;;7.50
24639;BMP180;1641;51.306;12.384;2022-11-30T07:49:44;100781.00;;;7.00
24639;BMP180;1641;51.306;12.384;2022-11-30T07:52:09;100778.00;;;7.40
24639;BMP180;1641;51.306;12.384;2022-11-30T07:54:34;100787.00;;;7.20
24639;BMP180;1641;51.306;12.384;2022-11-30T07:57:00;100792.00;;;6.90
24639;BMP180;1641;51.306;12.384;2022-11-30T07:59:25;100788.00;;;6.90
24639;BMP180;1641;51.306;12.384;2022-11-30T08:01:50;100781.00;;;7.00
24639;BMP180;1641;51.306;12.384;2022-11-30T08:04:16;100790.00;;;6.80
24639;BMP180;1641;51.306;12.384;2022-11-30T08:06:41;100712.00;;;7.30
24639;BMP180;1641;51.306;12.384;2022-11-30T08:09:06;100780.00;;;7.60
24639;BMP180;1641;51.306;12.384;2022-11-30T08:11:33;100793.00;;;7.30
24639;BMP180;1641;51.306;12.384;2022-11-30T08:13:59;100761.00;;;7.30
24639;BMP180;1641;51.306;12.384;2022-11-30T08:16:26;100789.00;;;7.50
24639;BMP180;1641;51.306;12.384;2022-11-30T08:18:54;100800.00;;;7.60
24639;BMP180;1641;51.306;12.384;2022-11-30T08:21:20;100790.00;;;7.70
24639;BMP180;1641;51.306;12.384;2022-11-30T08:23:51;100802.00;;;6.90
24639;BMP180;1641;51.306;12.384;2022-11-30T08:26:22;100801.00;;;7.30
24639;BMP180;1641;51.306;12.384;2022-11-30T08:28:50;100802.00;;;7.60
24639;BMP180;1641;51.306;12.384;2022-11-30T08:31:23;100801.00;;;8.30
24639;BMP180;1641;51.306;12.384;2022-11-30T08:33:48;100800.00;;;8.40
24639;BMP180;1641;51.306;12.384;2022-11-30T08:36:16;100795.00;;;8.60
24639;BMP180;1641;51.306;12.384;2022-11-30T08:38:45;100773.00;;;8.10
24639;BMP180;1641;51.306;12.384;2022-11-30T08:41:14;100804.00;;;7.60
24639;BMP180;1641;51.306;12.384;2022-11-30T08:43:40;100802.00;;;7.80
24639;BMP180;1641;51.306;12.384;2022-11-30T08:46:08;100806.00;;;8.20
24639;BMP180;1641;51.306;12.384;2022-11-30T08:48:37;100775.00;;;7.90
24639;BMP180;1641;51.306;12.384;2022-11-30T08:51:05;100801.00;;;7.70
24639;BMP180;1641;51.306;12.384;2022-11-30T08:53:32;100806.00;;;8.00
24639;BMP180;1641;51.306;12.384;2022-11-30T08:56:03;100807.00;;;7.60
24639;BMP180;1641;51.306;12.384;2022-11-30T08:58:37;100799.00;;;7.80
24639;BMP180;1641;51.306;12.384;2022-11-30T09:01:20;100797.00;;;7.90
24639;BMP180;1641;51.306;12.384;2022-11-30T09:03:46;100810.00;;;8.10
24639;BMP180;1641;51.306;12.384;2022-11-30T09:06:14;100803.00;;;8.50
24639;BMP180;1641;51.306;12.384;2022-11-30T09:08:43;100794.00;;;8.50
24639;BMP180;1641;51.306;12.384;2022-11-30T09:11:29;100802.00;;;8.60
24639;BMP180;1641;51.306;12.384;2022-11-30T09:13:57;100808.00;;;8.70
24639;BMP180;1641;51.306;12.384;2022-11-30T09:16:23;100815.00;;;8.00
24639;BMP180;1641;51.306;12.384;2022-11-30T09:18:49;100817.00;;;7.90
24639;BMP180;1641;51.306;12.384;2022-11-30T09:21:17;100815.00;;;7.80
24639;BMP180;1641;51.306;12.384;2022-11-30T09:23:43;100797.00;;;7.80
24639;BMP180;1641;51.306;12.384;2022-11-30T09:26:11;100817.00;;;8.20
24639;BMP180;1641;51.306;12.384;2022-11-30T09:28:38;100828.00;;;8.10
24639;BMP180;1641;51.306;12.384;2022-11-30T09:33:30;100796.00;;;8.20
24639;BMP180;1641;51.306;12.384;2022-11-30T09:35:58;100827.00;;;8.40
24639;BMP180;1641;51.306;12.384;2022-11-30T09:38:23;100823.00;;;7.90
24639;BMP180;1641;51.306;12.384;2022-11-30T09:40:56;100835.00;;;7.80
24639;BMP180;1641;51.306;12.384;2022-11-30T09:45:58;100825.00;;;8.40
24639;BMP180;1641;51.306;12.384;2022-11-30T09:51:26;100821.00;;;8.00
24639;BMP180;1641;51.306;12.384;2022-11-30T09:54:02;100833.00;;;8.30
24639;BMP180;1641;51.306;12.384;2022-11-30T09:56:38;100836.00;;;8.50
24639;BMP180;1641;51.306;12.384;2022-11-30T09:59:15;100827.00;;;8.70
24639;BMP180;1641;51.306;12.384;2022-11-30T10:01:44;100829.00;;;8.80
24639;BMP180;1641;51.306;12.384;2022-11-30T10:04:20;100835.00;;;9.10
24639;BMP180;1641;51.306;12.384;2022-11-30T10:12:30;100837.00;;;9.30
24639;BMP180;1641;51.306;12.384;2022-11-30T10:15:22;100833.00;;;9.10
24639;BMP180;1641;51.306;12.384;2022-11-30T10:17:55;100823.00;;;8.50
24639;BMP180;1641;51.306;12.384;2022-11-30T10:20:36;100836.00;;;8.90
24639;BMP180;1641;51.306;12.384;2022-11-30T10:25:53;100825.00;;;8.30
24639;BMP180;1641;51.306;12.384;2022-11-30T10:28:32;100831.00;;;8.20
24639;BMP180;1641;51.306;12.384;2022-11-30T10:31:02;100826.00;;;8.30
24639;BMP180;1641;51.306;12.384;2022-11-30T10:33:31;100826.00;;;8.30
24639;BMP180;1641;51.306;12.384;2022-11-30T10:36:02;100831.00;;;8.30
24639;BMP180;1641;51.306;12.384;2022-11-30T10:38:35;100835.00;;;7.50
24639;BMP180;1641;51.306;12.384;2022-11-30T10:44:01;100835.00;;;7.90
24639;BMP180;1641;51.306;12.384;2022-11-30T10:46:36;100835.00;;;8.20
24639;BMP180;1641;51.306;12.384;2022-11-30T10:49:09;100837.00;;;8.80
24639;BMP180;1641;51.306;12.384;2022-11-30T10:51:39;100815.00;;;9.20
24639;BMP180;1641;51.306;12.384;2022-11-30T10:54:14;100828.00;;;9.00
24639;BMP180;1641;51.306;12.384;2022-11-30T10:56:40;100833.00;;;8.70
24639;BMP180;1641;51.306;12.384;2022-11-30T10:59:12;100816.00;;;8.70
24639;BMP180;1641;51.306;12.384;2022-11-30T11:01:40;100816.00;;;8.70
24639;BMP180;1641;51.306;12.384;2022-11-30T11:06:49;100813.00;;;8.60
24639;BMP180;1641;51.306;12.384;2022-11-30T11:09:39;100822.00;;;9.00
24639;BMP180;1641;51.306;12.384;2022-11-30T11:12:14;100813.00;;;9.50
24639;BMP180;1641;51.306;12.384;2022-11-30T11:14:40;100815.00;;;9.00
24639;BMP180;1641;51.306;12.384;2022-11-30T11:17:22;100818.00;;;8.60
24639;BMP180;1641;51.306;12.384;2022-11-30T11:19:49;100818.00;;;9.00
24639;BMP180;1641;51.306;12.384;2022-11-30T11:22:18;100812.00;;;9.70
24639;BMP180;1641;51.306;12.384;2022-11-30T11:24:44;100814.00;;;9.90
24639;BMP180;1641;51.306;12.384;2022-11-30T11:27:21;100813.00;;;10.00
24639;BMP180;1641;51.306;12.384;2022-11-30T11:29:59;100812.00;;;10.10
24639;BMP180;1641;51.306;12.384;2022-11-30T11:32:24;100809.00;;;9.90
24639;BMP180;1641;51.306;12.384;2022-11-30T11:34:50;100807.00;;;9.30
24639;BMP180;1641;51.306;12.384;2022-11-30T11:39:57;100807.00;;;9.70
24639;BMP180;1641;51.306;12.384;2022-11-30T11:42:25;100812.00;;;9.90
24639;BMP180;1641;51.306;12.384;2022-11-30T11:44:52;100816.00;;;10.20
24639;BMP180;1641;51.306;12.384;2022-11-30T11:47:44;100812.00;;;9.80
24639;BMP180;1641;51.306;12.384;2022-11-30T11:52:48;100817.00;;;10.10
24639;BMP180;1641;51.306;12.384;2022-11-30T11:55:18;100805.00;;;9.50
24639;BMP180;1641;51.306;12.384;2022-11-30T11:57:56;100817.00;;;9.60
24639;BMP180;1641;51.306;12.384;2022-11-30T12:00:24;100821.00;;;9.30
24639;BMP180;1641;51.306;12.384;2022-11-30T12:02:57;100823.00;;;9.10
24639;BMP180;1641;51.306;12.384;2022-11-30T12:05:30;100807.00;;;9.00
24639;BMP180;1641;51.306;12.384;2022-11-30T12:08:03;100825.00;;;9.60
24639;BMP180;1641;51.306;12.384;2022-11-30T12:10:49;100824.00;;;9.80
24639;BMP180;1641;51.306;12.384;2022-11-30T12:13:19;100813.00;;;9.60
24639;BMP180;1641;51.306;12.384;2022-11-30T12:18:36;100825.00;;;10.00
24639;BMP180;1641;51.306;12.384;2022-11-30T12:24:33;100822.00;;;10.10
24639;BMP180;1641;51.306;12.384;2022-11-30T12:27:20;100803.00;;;9.00
24639;BMP180;1641;51.306;12.384;2022-11-30T12:33:02;100821.00;;;9.20
24639;BMP180;1641;51.306;12.384;2022-11-30T12:38:22;100812.00;;;9.30
24639;BMP180;1641;51.306;12.384;2022-11-30T12:43:57;100808.00;;;9.70
24639;BMP180;1641;51.306;12.384;2022-11-30T12:57:24;100815.00;;;8.90
24639;BMP180;1641;51.306;12.384;2022-11-30T13:00:19;100814.00;;;8.60
24639;BMP180;1641;51.306;12.384;2022-11-30T13:03:08;100812.00;;;8.60
24639;BMP180;1641;51.306;12.384;2022-11-30T13:05:43;100819.00;;;8.70
24639;BMP180;1641;51.306;12.384;2022-11-30T13:08:26;100817.00;;;9.30
24639;BMP180;1641;51.306;12.384;2022-11-30T13:11:07;100828.00;;;9.30
24639;BMP180;1641;51.306;12.384;2022-11-30T13:13:35;100828.00;;;8.50
24639;BMP180;1641;51.306;12.384;2022-11-30T13:16:04;100817.00;;;9.00
24639;BMP180;1641;51.306;12.384;2022-11-30T13:18:30;100826.00;;;8.80
24639;BMP180;1641;51.306;12.384;2022-11-30T13:23:29;100824.00;;;8.50
24639;BMP180;1641;51.306;12.384;2022-11-30T13:26:16;100828.00;;;8.80
24639;BMP180;1641;51.306;12.384;2022-11-30T13:29:15;100831.00;;;8.70
24639;BMP180;1641;51.306;12.384;2022-11-30T13:31:52;100824.00;;;8.30
24639;BMP180;1641;51.306;12.384;2022-11-30T13:34:27;100831.00;;;8.00
24639;BMP180;1641;51.306;12.384;2022-11-30T13:37:01;100834.00;;;8.10
24639;BMP180;1641;51.306;12.384;2022-11-30T13:39:29;100844.00;;;8.20
24639;BMP180;1641;51.306;12.384;2022-11-30T13:44:33;100838.00;;;7.80
24639;BMP180;1641;51.306;12.384;2022-11-30T13:47:00;100838.00;;;7.40
24639;BMP180;1641;51.306;12.384;2022-11-30T13:49:32;100827.00;;;7.70
24639;BMP180;1641;51.306;12.384;2022-11-30T13:51:58;100845.00;;;7.80
24639;BMP180;1641;51.306;12.384;2022-11-30T13:54:42;100817.00;;;7.80
24639;BMP180;1641;51.306;12.384;2022-11-30T13:59:51;100833.00;;;8.10
24639;BMP180;1641;51.306;12.384;2022-11-30T14:07:43;100837.00;;;7.70
24639;BMP180;1641;51.306;12.384;2022-11-30T14:26:23;100853.00;;;7.80
24639;BMP180;1641;51.306;12.384;2022-11-30T14:34:21;100866.00;;;7.60
24639;BMP180;1641;51.306;12.384;2022-11-30T14:36:55;100865.00;;;8.00
24639;BMP180;1641;51.306;12.384;2022-11-30T14:39:37;100871.00;;;7.90
24639;BMP180;1641;51.306;12.384;2022-11-30T14:42:27;100871.00;;;7.60
24639;BMP180;1641;51.306;12.384;2022-11-30T14:44:53;100831.00;;;7.50
24639;BMP180;1641;51.306;12.384;2022-11-30T14:47:30;100874.00;;;7.10
24639;BMP180;1641;51.306;12.384;2022-11-30T14:50:20;100832.00;;;7.20
24639;BMP180;1641;51.306;12.384;2022-11-30T14:55:42;100859.00;;;7.40
24639;BMP180;1641;51.306;12.384;2022-11-30T15:01:01;100873.00;;;6.80
24639;BMP180;1641;51.306;12.384;2022-11-30T15:03:31;100855.00;;;7.00
24639;BMP180;1641;51.306;12.384;2022-11-30T15:06:01;100874.00;;;7.20
24639;BMP180;1641;51.306;12.384;2022-11-30T15:08:35;100868.00;;;6.70
24639;BMP180;1641;51.306;12.384;2022-11-30T15:11:06;100879.00;;;6.70
24639;BMP180;1641;51.306;12.384;2022-11-30T15:13:37;100870.00;;;6.50
24639;BMP180;1641;51.306;12.384;2022-11-30T15:16:08;100866.00;;;7.00
24639;BMP180;1641;51.306;12.384;2022-11-30T15:18:37;100871.00;;;7.00
24639;BMP180;1641;51.306;12.384;2022-11-30T15:21:23;100876.00;;;6.90
24639;BMP180;1641;51.306;12.384;2022-11-30T15:23:53;100872.00;;;7.10
24639;BMP180;1641;51.306;12.384;2022-11-30T15:29:08;100890.00;;;6.80
24639;BMP180;1641;51.306;12.384;2022-11-30T15:31:38;100884.00;;;6.60
24639;BMP180;1641;51.306;12.384;2022-11-30T15:34:05;100881.00;;;6.30
24639;BMP180;1641;51.306;12.384;2022-11-30T15:36:35;100891.00;;;6.20
24639;BMP180;1641;51.306;12.384;2022-11-30T15:39:04;100871.00;;;6.40
24639;BMP180;1641;51.306;12.384;2022-11-30T15:41:30;100856.00;;;6.40
24639;BMP180;1641;51.306;12.384;2022-11-30T15:43:57;100888.00;;;6.70
24639;BMP180;1641;51.306;12.384;2022-11-30T15:49:14;100865.00;;;6.80
24639;BMP180;1641;51.306;12.384;2022-11-30T15:51:46;100888.00;;;6.50
24639;BMP180;1641;51.306;12.384;2022-11-30T15:54:15;100863.00;;;6.20
24639;BMP180;1641;51.306;12.384;2022-11-30T15:56:40;100881.00;;;6.10
24639;BMP180;1641;51.306;12.384;2022-11-30T15:59:24;100893.00;;;6.50
24639;BMP180;1641;51.306;12.384;2022-11-30T16:01:58;100873.00;;;6.20
24639;BMP180;1641;51.306;12.384;2022-11-30T16:07:24;100890.00;;;5.90
24639;BMP180;1641;51.306;12.384;2022-11-30T16:09:51;100888.00;;;6.20
24639;BMP180;1641;51.306;12.384;2022-11-30T16:12:27;100896.00;;;6.20